Time;durP1;ratioP1;P1;durP2;ratioP2;P2;SDS_P1;SDS_P2;PMS_P1;PMS_P2;Temp;Humidity;BMP_temperature;BMP_pressure;BME280_temperature;BME280_humidity;BME280_pressure;Samples;Min_cycle;Max_cycle;Signal;HPM_P1;HPM_P2
2022/01/22 00:02:21;;;;;;;2.47;1.90;;;;;;;-1.84;48.35;97304.47;6149875;23;20180;-80
2022/01/22 00:04:49;;;;;;;3.97;1.90;;;;;;;-2.04;48.51;97280.63;6099203;23;20164;-81
2022/01/22 00:07:18;;;;;;;6.17;1.93;;;;;;;-2.34;49.26;97234.78;6149095;23;20160;-82
2022/01/22 00:09:53;;;;;;;4.27;2.43;;;;;;;-2.04;49.45;97295.84;6124253;23;20195;-82
2022/01/22 00:15:16;;;;;;;4.00;2.20;;;;;;;-2.12;49.67;97291.59;6094539;23;20178;-81
2022/01/22 00:17:44;;;;;;;3.10;1.90;;;;;;;-2.11;49.37;97296.66;6151684;23;20165;-81
2022/01/22 00:20:14;;;;;;;2.67;1.80;;;;;;;-2.08;49.68;97305.97;6153320;23;20246;-85
2022/01/22 00:22:42;;;;;;;1.93;1.77;;;;;;;-2.19;50.00;97278.00;6077972;23;20173;-86
2022/01/22 00:25:14;;;;;;;3.07;2.40;;;;;;;-2.08;49.91;97295.84;6128844;23;20173;-82
2022/01/22 00:27:44;;;;;;;2.87;1.90;;;;;;;-2.17;50.00;97285.63;6156672;23;20167;-83
2022/01/22 00:30:15;;;;;;;2.80;2.10;;;;;;;-2.00;49.05;97301.81;6159151;23;20191;-84
2022/01/22 00:32:43;;;;;;;4.93;2.13;;;;;;;-1.99;48.92;97284.06;6100400;23;20224;-84
2022/01/22 00:35:11;;;;;;;3.00;2.23;;;;;;;-1.84;49.19;97274.00;6151570;23;20167;-89
2022/01/22 00:37:42;;;;;;;5.33;2.63;;;;;;;-1.85;48.50;97251.16;6153327;23;20193;-88
2022/01/22 00:40:11;;;;;;;2.70;2.30;;;;;;;-1.74;48.87;97291.00;6126523;23;20167;-91
2022/01/22 00:42:41;;;;;;;3.63;2.30;;;;;;;-1.76;49.00;97285.06;6129252;23;20174;-83
2022/01/22 00:45:11;;;;;;;2.50;1.80;;;;;;;-1.81;49.65;97301.06;6158506;23;20173;-87
2022/01/22 00:47:39;;;;;;;3.93;2.13;;;;;;;-1.87;49.76;97291.75;6153019;23;20547;-88
2022/01/22 00:50:11;;;;;;;4.73;1.90;;;;;;;-1.88;49.27;97300.22;6125319;23;20195;-82
2022/01/22 00:52:40;;;;;;;4.57;1.90;;;;;;;-1.92;49.58;97292.56;6077099;23;20170;-83
2022/01/22 00:55:08;;;;;;;2.77;2.20;;;;;;;-2.07;49.20;97250.19;6150975;23;20650;-86
2022/01/22 00:57:36;;;;;;;2.60;2.03;;;;;;;-1.77;48.96;97274.88;6152631;23;20282;-85
2022/01/22 01:00:08;;;;;;;2.77;1.87;;;;;;;-1.77;49.19;97285.88;6151079;23;20170;-88
2022/01/22 01:02:36;;;;;;;4.17;2.00;;;;;;;-1.71;49.62;97278.31;6152395;23;20159;-84
2022/01/22 01:05:09;;;;;;;2.50;1.90;;;;;;;-1.82;49.29;97251.19;6137213;23;20174;-82
2022/01/22 01:07:38;;;;;;;2.33;2.13;;;;;;;-1.68;49.52;97280.88;6141790;23;20170;-84
2022/01/22 01:10:14;;;;;;;1.87;1.77;;;;;;;-1.59;48.70;97269.06;6113466;23;20265;-83
2022/01/22 01:12:42;;;;;;;3.77;1.90;;;;;;;-1.57;49.19;97267.38;6140983;23;20180;-81
2022/01/22 01:34:14;;;;;;;3.47;2.10;;;;;;;-1.63;50.49;97238.56;6107152;23;20171;-84
2022/01/22 01:36:56;;;;;;;2.27;2.00;;;;;;;-1.80;50.89;97224.97;6134395;23;20174;-82
2022/01/22 01:39:31;;;;;;;3.00;1.90;;;;;;;-1.90;51.15;97207.16;6137075;23;20168;-84
2022/01/22 01:44:31;;;;;;;2.07;1.87;;;;;;;-1.84;51.74;97213.13;6138352;23;20705;-83
2022/01/22 01:47:08;;;;;;;2.83;2.10;;;;;;;-1.92;51.59;97209.69;6137056;23;20172;-79
2022/01/22 01:49:37;;;;;;;4.13;1.80;;;;;;;-1.78;51.43;97227.50;6163012;23;20191;-80
2022/01/22 01:52:18;;;;;;;5.47;1.97;;;;;;;-1.68;51.17;97230.09;6134785;23;20687;-80
2022/01/22 01:55:02;;;;;;;6.37;2.60;;;;;;;-1.69;51.61;97203.00;6157381;23;20198;-80
2022/01/22 01:57:42;;;;;;;6.23;2.83;;;;;;;-1.63;51.71;97204.75;6125358;23;20694;-80
2022/01/22 02:00:24;;;;;;;5.03;2.10;;;;;;;-1.59;51.34;97195.44;6125755;23;20256;-80
2022/01/22 02:02:55;;;;;;;4.60;2.07;;;;;;;-1.57;51.59;97191.22;6125137;23;20171;-80
2022/01/22 02:05:26;;;;;;;2.87;1.90;;;;;;;-1.58;51.93;97192.03;6125051;23;20174;-79
2022/01/22 02:07:58;;;;;;;2.37;1.70;;;;;;;-1.64;51.89;97195.41;6157361;23;20177;-94
2022/01/22 02:10:49;;;;;;;3.20;1.80;;;;;;;-1.77;51.87;97171.69;6168799;23;20193;-91
2022/01/22 02:25:08;;;;;;;5.23;1.77;;;;;;;-1.65;53.47;97189.50;6125249;23;20201;-84
2022/01/22 02:27:38;;;;;;;3.80;2.53;;;;;;;-1.75;53.52;97147.16;6151680;23;20168;-83
2022/01/22 02:30:09;;;;;;;2.40;2.20;;;;;;;-1.65;53.85;97160.75;6124485;23;20208;-81
2022/01/22 02:33:12;;;;;;;2.80;2.27;;;;;;;-1.41;53.47;97180.25;6109364;23;20258;-81
2022/01/22 02:35:58;;;;;;;3.90;2.57;;;;;;;-1.43;53.37;97171.78;6100838;23;20175;-86
2022/01/22 02:38:45;;;;;;;3.73;2.23;;;;;;;-1.39;53.01;97173.50;6099656;23;20177;-82
2022/01/22 02:41:17;;;;;;;2.53;2.30;;;;;;;-1.39;53.20;97160.81;6125276;23;20638;-81
2022/01/22 02:43:49;;;;;;;4.27;2.77;;;;;;;-1.32;52.87;97182.84;6101116;23;20163;-84
2022/01/22 02:46:18;;;;;;;2.87;2.27;;;;;;;-1.34;53.29;97169.28;6101220;23;20631;-85
2022/01/22 02:48:47;;;;;;;4.93;3.07;;;;;;;-1.31;53.86;97166.75;6127067;23;20171;-83
2022/01/22 02:51:14;;;;;;;4.00;2.40;;;;;;;-1.31;53.29;97165.06;6100945;23;20248;-81
2022/01/22 02:53:42;;;;;;;3.63;2.40;;;;;;;-1.31;53.69;97164.19;6126819;23;20168;-81
2022/01/22 02:56:15;;;;;;;3.47;2.47;;;;;;;-1.32;53.71;97163.34;6126243;23;20252;-82
2022/01/22 02:58:43;;;;;;;2.70;1.87;;;;;;;-1.31;53.86;97165.06;6127218;23;20170;-81
2022/01/22 03:01:15;;;;;;;4.43;2.13;;;;;;;-1.28;53.77;97157.47;6105789;23;20181;-82
2022/01/22 03:03:44;;;;;;;3.63;1.87;;;;;;;-1.37;54.60;97154.03;6129129;23;20171;-80
2022/01/22 03:06:13;;;;;;;4.97;2.10;;;;;;;-1.39;53.77;97148.97;6132896;23;20193;-80
2022/01/22 03:08:43;;;;;;;4.27;2.57;;;;;;;-1.41;54.23;97152.34;6129175;23;20171;-81
2022/01/22 03:11:41;;;;;;;3.27;2.03;;;;;;;-1.38;53.64;97165.06;6126815;23;20281;-84
2022/01/22 03:14:34;;;;;;;9.00;3.20;;;;;;;-1.41;53.97;97152.34;6128031;23;20520;-82
2022/01/22 03:17:09;;;;;;;5.90;2.93;;;;;;;-1.30;53.95;97165.91;6100126;23;20228;-80
2022/01/22 03:22:18;;;;;;;2.67;2.00;;;;;;;-1.38;53.29;97134.56;6157231;23;20694;-81
2022/01/22 03:27:33;;;;;;;3.70;1.93;;;;;;;-1.28;53.79;97139.69;6155240;23;20197;-89
2022/01/22 03:30:00;;;;;;;4.77;2.30;;;;;;;-1.26;52.77;97145.63;6152812;23;20228;-81
2022/01/22 03:32:36;;;;;;;4.60;2.27;;;;;;;-1.38;52.65;97127.78;6152933;23;20161;-80
2022/01/22 03:35:13;;;;;;;3.57;2.20;;;;;;;-1.36;52.57;97135.44;6126186;23;20213;-82
2022/01/22 03:37:41;;;;;;;3.93;2.30;;;;;;;-1.47;52.61;97121.84;6100217;23;20199;-81
2022/01/22 03:40:14;;;;;;;3.50;2.20;;;;;;;-1.69;52.38;97096.41;6099751;23;20719;-86
2022/01/22 03:42:42;;;;;;;2.63;2.07;;;;;;;-1.50;52.33;97111.66;6125603;23;20265;-83
2022/01/22 03:45:11;;;;;;;2.63;1.87;;;;;;;-1.43;52.39;97143.88;6124927;23;20174;-84
2022/01/22 03:47:40;;;;;;;5.20;2.03;;;;;;;-1.39;52.42;97151.50;6129849;23;20166;-81
2022/01/22 03:50:09;;;;;;;4.57;2.20;;;;;;;-1.31;51.73;97154.03;6156251;23;20226;-81
2022/01/22 03:52:37;;;;;;;2.63;1.60;;;;;;;-1.42;52.70;97160.81;6130733;23;20611;-82
2022/01/22 03:55:11;;;;;;;2.23;1.63;;;;;;;-1.43;52.43;97161.63;6126576;23;20175;-81
2022/01/22 03:57:58;;;;;;;2.67;1.70;;;;;;;-1.46;52.40;97148.94;6130530;23;20205;-81
2022/01/22 04:00:26;;;;;;;2.70;1.63;;;;;;;-1.50;52.18;97155.69;6133374;23;20212;-90
2022/01/22 04:05:24;;;;;;;3.80;1.57;;;;;;;-1.54;52.02;97145.50;6165982;23;20181;-84
2022/01/22 04:08:13;;;;;;;2.23;1.73;;;;;;;-1.48;52.32;97155.72;6114462;23;20165;-88
2022/01/22 04:10:40;;;;;;;4.67;1.90;;;;;;;-1.69;52.54;97118.44;6135993;23;20278;-81
2022/01/22 04:13:12;;;;;;;3.53;2.00;;;;;;;-1.47;52.03;97148.09;6141575;23;20227;-88
2022/01/22 04:15:41;;;;;;;6.87;2.47;;;;;;;-1.46;51.85;97141.34;6142718;23;20185;-85
2022/01/22 04:29:14;;;;;;;2.80;2.10;;;;;;;-1.44;50.40;97153.16;6168508;23;20170;-90
2022/01/22 04:31:41;;;;;;;4.27;2.23;;;;;;;-1.53;50.51;97134.53;6139818;23;20202;-90
2022/01/22 04:34:09;;;;;;;3.23;1.90;;;;;;;-1.45;50.82;97150.63;6163991;23;20229;-83
2022/01/22 04:36:36;;;;;;;4.37;1.83;;;;;;;-1.87;51.11;97086.22;6113389;23;20173;-90
2022/01/22 04:39:07;;;;;;;3.47;2.00;;;;;;;-1.48;50.84;97155.72;6140550;23;20172;-94
2022/01/22 04:41:35;;;;;;;2.77;1.90;;;;;;;-1.47;51.07;97163.34;6111469;23;20166;-94
2022/01/22 04:44:04;;;;;;;7.40;2.57;;;;;;;-1.48;51.55;97164.16;6169945;23;20176;-86
2022/01/22 04:46:49;;;;;;;2.17;1.90;;;;;;;-1.55;52.10;97164.16;6152671;23;20166;-85
2022/01/22 04:55:01;;;;;;;3.77;2.53;;;;;;;-1.53;52.70;97144.69;6143955;23;20200;-91
2022/01/22 04:57:36;;;;;;;3.83;2.70;;;;;;;-1.51;52.78;97137.91;6095258;23;20207;-89
2022/01/22 05:00:10;;;;;;;3.77;2.20;;;;;;;-1.47;52.86;97148.09;6049934;23;20180;-82
2022/01/22 05:03:00;;;;;;;3.17;2.10;;;;;;;-1.43;53.28;97149.78;6093680;23;20200;-81
2022/01/22 05:05:48;;;;;;;6.10;2.43;;;;;;;-1.43;52.54;97146.41;6094855;23;20555;-82
2022/01/22 05:08:37;;;;;;;2.37;1.90;;;;;;;-1.42;52.27;97131.16;6071582;23;20172;-83
2022/01/22 05:11:11;;;;;;;4.93;2.30;;;;;;;-1.44;52.32;97143.00;6092624;23;20255;-83
2022/01/22 05:13:41;;;;;;;4.63;2.30;;;;;;;-1.31;52.22;97146.44;6044970;23;20179;-83
2022/01/22 05:16:13;;;;;;;3.97;1.90;;;;;;;-1.46;52.33;97126.09;6091710;23;20169;-83
2022/01/22 05:18:53;;;;;;;5.17;3.50;;;;;;;-1.36;52.80;97136.25;6092804;23;20193;-84
2022/01/22 05:21:23;;;;;;;7.53;3.30;;;;;;;-1.50;52.34;97125.22;6045778;23;20668;-81
2022/01/22 05:23:54;;;;;;;5.50;2.70;;;;;;;-1.42;52.38;97130.34;6046240;23;20262;-83
2022/01/22 05:29:43;;;;;;;2.30;2.00;;;;;;;-1.33;51.42;97141.34;6094036;23;20182;-82
2022/01/22 05:32:48;;;;;;;3.57;2.40;;;;;;;-1.45;51.42;97143.88;6091319;23;20710;-81
2022/01/22 05:38:13;;;;;;;2.27;1.87;;;;;;;-1.53;51.66;97122.69;6092561;23;20640;-83
2022/01/22 05:40:40;;;;;;;3.67;2.47;;;;;;;-1.64;50.83;97104.03;6092212;23;20170;-84
2022/01/22 05:43:08;;;;;;;4.93;2.40;;;;;;;-1.36;51.30;97155.75;6095248;23;20181;-83
2022/01/22 05:45:36;;;;;;;3.97;2.97;;;;;;;-1.34;50.69;97162.50;6094707;23;20205;-84
2022/01/22 05:48:05;;;;;;;7.30;3.80;;;;;;;-1.48;50.92;97159.09;6092532;23;20175;-82
2022/01/22 05:50:47;;;;;;;7.03;2.90;;;;;;;-1.68;51.78;97127.72;6092620;23;20199;-86
2022/01/22 05:53:49;;;;;;;6.77;3.67;;;;;;;-1.65;50.99;97143.78;6090500;23;20278;-82
2022/01/22 06:01:46;;;;;;;6.30;3.80;;;;;;;-1.68;51.25;97138.72;6066814;23;20180;-82
2022/01/22 06:04:24;;;;;;;6.83;3.67;;;;;;;-1.54;51.39;97138.75;6092661;23;20232;-80
2022/01/22 06:07:03;;;;;;;5.60;3.77;;;;;;;-1.46;51.01;97159.09;6090075;23;20175;-81
2022/01/22 06:09:33;;;;;;;7.43;3.70;;;;;;;-1.47;51.14;97140.47;6092015;23;20187;-86
2022/01/22 06:14:52;;;;;;;6.67;3.83;;;;;;;-1.41;51.19;97112.56;6091486;23;20242;-83
2022/01/22 06:17:20;;;;;;;10.93;4.97;;;;;;;-1.13;51.79;97152.38;6067991;23;20175;-87
2022/01/22 06:19:57;;;;;;;6.50;4.63;;;;;;;-1.32;51.25;97116.81;6090690;23;20230;-83
2022/01/22 06:22:30;;;;;;;25.50;11.07;;;;;;;-1.00;51.25;97131.22;6067234;23;20306;-83
2022/01/22 06:25:31;;;;;;;17.47;9.70;;;;;;;-0.95;51.57;97123.63;6050880;23;20180;-83
2022/01/22 06:28:10;;;;;;;9.93;4.73;;;;;;;-0.85;50.17;97140.56;6089624;23;20164;-82
2022/01/22 06:30:38;;;;;;;12.20;5.70;;;;;;;-0.86;50.13;97128.69;6066358;23;20203;-81
2022/01/22 06:33:32;;;;;;;12.87;6.43;;;;;;;-0.94;50.51;97130.38;6066488;23;20165;-82
2022/01/22 06:36:33;;;;;;;11.97;5.47;;;;;;;-0.94;50.74;97126.16;6090008;23;20173;-81
2022/01/22 06:39:19;;;;;;;8.27;5.30;;;;;;;-1.11;49.94;97071.94;6044963;23;20713;-82
2022/01/22 06:42:19;;;;;;;17.93;5.90;;;;;;;-0.82;49.41;97112.59;6092728;23;20227;-84
2022/01/22 06:45:13;;;;;;;11.30;5.30;;;;;;;-0.91;50.14;97110.06;6046689;23;20176;-81
2022/01/22 06:47:56;;;;;;;11.20;5.63;;;;;;;-1.03;50.35;97094.81;6070001;23;20630;-83
2022/01/22 06:50:26;;;;;;;9.10;6.07;;;;;;;-0.82;50.04;97104.97;6089305;23;20622;-82
2022/01/22 06:53:04;;;;;;;9.40;5.33;;;;;;;-0.86;50.40;97088.88;6067958;23;20172;-82
2022/01/22 06:55:43;;;;;;;10.13;6.20;;;;;;;-0.78;50.38;97101.56;6092293;23;20882;-82
2022/01/22 06:58:16;;;;;;;9.80;5.40;;;;;;;-0.77;49.77;97077.84;6124468;23;20253;-81
2022/01/22 07:01:02;;;;;;;13.40;8.43;;;;;;;-0.38;49.86;97107.44;6127492;23;20179;-88
2022/01/22 07:03:54;;;;;;;14.10;6.20;;;;;;;-0.44;50.32;97102.38;6063487;23;20523;-92
2022/01/22 07:06:54;;;;;;;10.33;5.90;;;;;;;-0.21;48.70;97105.72;6022163;23;20268;-88
2022/01/22 07:09:49;;;;;;;7.27;4.10;;;;;;;-0.36;49.49;97101.50;6126841;23;20182;-87
2022/01/22 07:13:03;;;;;;;14.73;5.57;;;;;;;-0.06;51.03;97111.59;6101925;23;20286;-89
2022/01/22 07:16:25;;;;;;;7.10;3.50;;;;;;;-0.20;48.94;97082.78;6061072;23;20763;-87
2022/01/22 07:19:24;;;;;;;6.97;3.70;;;;;;;-0.11;48.69;97077.69;6013383;23;20185;-92
2022/01/22 07:22:39;;;;;;;7.90;4.60;;;;;;;0.08;48.35;97101.38;6017536;23;20966;-92
2022/01/22 07:25:44;;;;;;;11.17;5.87;;;;;;;-0.19;49.38;97088.75;6037488;23;20173;-87
2022/01/22 07:28:40;;;;;;;19.57;9.47;;;;;;;-0.05;49.02;97094.63;6038534;23;20173;-93
2022/01/22 07:31:11;;;;;;;11.77;7.30;;;;;;;-0.02;47.85;97098.00;6012101;23;20249;-86
2022/01/22 07:33:50;;;;;;;11.67;6.90;;;;;;;0.04;48.15;97084.41;6013329;23;20210;-87
2022/01/22 07:36:21;;;;;;;14.57;6.20;;;;;;;0.19;47.52;97086.03;6034681;23;20168;-88
2022/01/22 07:38:56;;;;;;;9.20;5.60;;;;;;;0.26;47.96;97077.50;5991031;23;20177;-88
2022/01/22 07:41:25;;;;;;;9.00;5.43;;;;;;;-0.07;47.89;97053.91;6018793;23;20188;-91
2022/01/22 07:44:21;;;;;;;8.93;5.37;;;;;;;0.02;48.05;97075.09;6045146;23;20181;-89
2022/01/22 07:47:12;;;;;;;6.00;3.30;;;;;;;0.04;47.73;97075.94;6142660;23;20175;-90
2022/01/22 07:49:47;;;;;;;7.00;3.77;;;;;;;-0.17;48.31;97067.53;6099797;23;20565;-87
2022/01/22 07:52:18;;;;;;;5.30;2.93;;;;;;;0.05;47.14;97045.38;6102037;23;20269;-87
2022/01/22 07:54:50;;;;;;;6.37;3.97;;;;;;;0.17;48.01;97072.44;6076995;23;20268;-87
2022/01/22 07:57:24;;;;;;;7.63;3.90;;;;;;;0.18;47.89;97059.75;6125332;23;20207;-87
2022/01/22 07:59:59;;;;;;;6.07;3.20;;;;;;;0.19;46.02;97076.69;6126104;23;20229;-88
2022/01/22 08:03:00;;;;;;;10.33;4.23;;;;;;;0.57;46.16;97076.47;6071814;23;20536;-86
2022/01/22 08:06:15;;;;;;;9.13;3.70;;;;;;;0.63;44.47;97074.75;6042863;23;20181;-87
2022/01/22 08:09:45;;;;;;;7.27;2.90;;;;;;;0.49;43.59;97057.84;6053848;23;20184;-90
2022/01/22 08:12:50;;;;;;;6.17;2.60;;;;;;;0.28;43.74;97058.84;6045021;23;20204;-88
2022/01/22 08:15:56;;;;;;;3.60;2.00;;;;;;;-0.05;43.69;97085.28;5995478;23;20189;-88
2022/01/22 08:24:04;;;;;;;7.27;2.60;;;;;;;-0.34;46.45;97073.50;6023865;23;20215;-88
2022/01/22 08:37:14;;;;;;;3.30;1.80;;;;;;;-0.32;45.23;97075.22;5979454;23;20168;-90
2022/01/22 08:40:00;;;;;;;4.03;2.47;;;;;;;-0.23;44.85;97062.44;5997601;23;20203;-88
2022/01/22 08:42:56;;;;;;;3.93;1.77;;;;;;;-0.47;45.93;97032.00;6149395;23;20202;-89
2022/01/22 08:46:09;;;;;;;6.77;2.93;;;;;;;-0.10;45.12;97060.69;6109205;23;20191;-90
2022/01/22 08:48:40;;;;;;;8.17;3.50;;;;;;;-0.03;44.34;97055.59;6103167;23;20252;-86
2022/01/22 08:51:38;;;;;;;3.40;2.00;;;;;;;-0.16;45.03;97061.56;6130297;23;20191;-88
2022/01/22 08:54:13;;;;;;;5.67;2.40;;;;;;;0.11;45.04;97036.84;6076815;23;20178;-88
2022/01/22 09:00:39;;;;;;;3.40;1.80;;;;;;;0.31;45.90;97012.97;6137648;23;20167;-86
2022/01/22 09:03:19;;;;;;;4.10;2.57;;;;;;;0.19;46.91;97040.19;6123345;23;20619;-87
2022/01/22 09:06:04;;;;;;;6.33;2.07;;;;;;;0.17;46.70;97029.16;6102238;23;20581;-88
2022/01/22 09:09:07;;;;;;;5.03;2.53;;;;;;;0.07;47.12;97025.00;6125911;23;20175;-88
2022/01/22 09:11:54;;;;;;;5.30;2.50;;;;;;;-0.07;47.04;96997.94;6133550;23;20265;-88
2022/01/22 09:14:42;;;;;;;5.10;3.20;;;;;;;0.06;48.40;96977.50;6112978;23;20230;-87
2022/01/22 09:17:14;;;;;;;3.67;2.27;;;;;;;0.06;47.34;97002.94;6133777;23;20202;-87
2022/01/22 09:19:46;;;;;;;7.70;4.03;;;;;;;0.07;46.63;96997.84;6083777;23;20186;-88
2022/01/22 09:22:18;;;;;;;4.13;2.73;;;;;;;0.07;45.98;96981.72;6087398;23;20588;-88
2022/01/22 09:24:52;;;;;;;10.83;4.97;;;;;;;0.22;46.32;97004.53;6105166;23;20259;-86
2022/01/22 09:27:23;;;;;;;11.37;5.53;;;;;;;0.26;45.75;97014.72;6112393;23;20202;-85
2022/01/22 09:29:54;;;;;;;6.77;3.00;;;;;;;0.14;46.05;97017.34;6130809;23;20164;-85
2022/01/22 09:32:42;;;;;;;11.27;4.80;;;;;;;0.07;46.48;97002.94;6127026;23;20209;-88
2022/01/22 09:35:25;;;;;;;7.07;3.50;;;;;;;-0.01;46.67;96972.44;6132484;23;20167;-87
2022/01/22 09:38:30;;;;;;;7.20;4.10;;;;;;;0.30;47.75;97008.75;6080396;23;20175;-88
2022/01/22 09:41:36;;;;;;;6.33;3.53;;;;;;;0.23;47.32;96998.63;6140179;23;20237;-89
2022/01/22 09:45:30;;;;;;;7.40;3.90;;;;;;;0.34;47.15;96990.03;6118598;23;20168;-91
2022/01/22 09:49:23;;;;;;;4.57;3.20;;;;;;;0.47;46.60;96978.91;6101396;23;20175;-88
2022/01/22 09:53:42;;;;;;;3.90;2.63;;;;;;;0.57;45.17;96966.94;6158207;23;20219;-86
2022/01/22 09:57:27;;;;;;;3.27;2.17;;;;;;;0.29;46.01;96930.66;6104333;23;20204;-89
2022/01/22 10:00:55;;;;;;;6.93;5.80;;;;;;;0.22;47.87;96971.44;6098741;23;20179;-90
2022/01/22 10:04:24;;;;;;;4.20;2.47;;;;;;;-0.31;49.96;96976.84;6076554;23;20176;-92
2022/01/22 10:08:05;;;;;;;6.43;2.90;;;;;;;-0.59;56.58;96995.59;6096713;23;20171;-91
2022/01/22 10:12:05;;;;;;;3.83;2.87;;;;;;;-1.03;63.30;96995.72;6063073;23;20234;-91
2022/01/22 10:15:48;;;;;;;9.57;2.93;;;;;;;-0.71;65.03;96986.31;6077660;23;20183;-90
2022/01/22 10:19:12;;;;;;;3.40;2.60;;;;;;;-0.60;65.00;96989.69;6094764;23;20641;-92
2022/01/22 10:22:15;;;;;;;6.60;3.97;;;;;;;-0.46;65.25;96977.75;6073204;23;20811;-91
2022/01/22 10:25:43;;;;;;;4.23;3.57;;;;;;;-0.33;63.08;96965.84;6097226;23;20236;-91
2022/01/22 10:28:44;;;;;;;5.57;3.83;;;;;;;-0.09;61.70;96961.47;6099444;23;20578;-95
2022/01/22 10:31:46;;;;;;;6.10;3.57;;;;;;;-0.06;60.16;96952.94;6089060;23;20214;-87
2022/01/22 10:34:47;;;;;;;5.37;2.90;;;;;;;-0.04;60.32;96962.28;6074952;23;20168;-87
2022/01/22 10:37:46;;;;;;;4.07;3.10;;;;;;;-0.26;60.83;96921.69;6040390;23;20207;-87
2022/01/22 10:44:22;;;;;;;5.27;3.17;;;;;;;-0.31;63.74;96967.50;6085426;23;20612;-86
2022/01/22 10:47:29;;;;;;;5.50;3.43;;;;;;;-0.66;67.75;96968.50;6092396;23;20532;-86
2022/01/22 10:50:18;;;;;;;6.93;4.13;;;;;;;-0.89;68.94;96964.31;6093301;23;20172;-85
2022/01/22 10:52:55;;;;;;;6.70;4.43;;;;;;;-0.90;69.75;96951.63;6042436;23;20624;-88
2022/01/22 10:55:24;;;;;;;11.13;5.00;;;;;;;-1.04;70.51;96915.25;6091800;23;20300;-87
2022/01/22 10:58:15;;;;;;;3.93;2.87;;;;;;;-0.85;69.59;96937.22;6067376;23;20398;-90
2022/01/22 11:00:43;;;;;;;6.73;3.53;;;;;;;-0.88;70.11;96899.09;6089111;23;20189;-86
2022/01/22 11:03:25;;;;;;;8.53;4.40;;;;;;;-0.45;68.59;96920.09;6090788;23;20196;-87
2022/01/22 11:05:54;;;;;;;14.90;6.73;;;;;;;-0.22;67.68;96921.66;6066943;23;20234;-86
2022/01/22 11:08:23;;;;;;;9.67;6.83;;;;;;;-0.04;66.19;96930.88;6067231;23;20675;-84
2022/01/22 11:10:53;;;;;;;7.07;2.80;;;;;;;0.01;61.57;96916.44;6093263;23;20180;-89
2022/01/22 11:13:33;;;;;;;6.63;3.57;;;;;;;0.13;59.83;96920.59;6047642;23;20672;-88
2022/01/22 11:16:25;;;;;;;6.83;3.73;;;;;;;0.24;58.81;96908.63;6074159;23;20214;-87
2022/01/22 11:19:21;;;;;;;8.47;3.90;;;;;;;0.12;57.73;96901.09;6072333;23;20486;-90
2022/01/22 11:21:55;;;;;;;8.83;3.80;;;;;;;0.16;58.10;96900.22;6091166;23;20171;-88
2022/01/22 11:24:31;;;;;;;7.13;3.23;;;;;;;0.25;57.12;96911.16;6044649;23;20477;-91
2022/01/22 11:27:15;;;;;;;4.37;2.43;;;;;;;0.14;56.10;96910.41;6093660;23;20179;-86
2022/01/22 11:29:56;;;;;;;3.97;2.77;;;;;;;-0.01;57.06;96911.38;6069652;23;20184;-91
2022/01/22 11:33:15;;;;;;;6.60;3.80;;;;;;;-0.16;59.84;96897.88;6094270;23;20219;-87
2022/01/22 11:36:21;;;;;;;5.57;3.60;;;;;;;-0.08;61.54;96879.16;6074060;23;20181;-89
2022/01/22 11:38:56;;;;;;;3.53;3.23;;;;;;;0.09;60.69;96893.47;6046065;23;20258;-90
2022/01/22 11:41:32;;;;;;;8.23;3.83;;;;;;;0.07;60.73;96900.25;6091168;23;20547;-92
2022/01/22 11:44:22;;;;;;;7.03;3.80;;;;;;;0.11;59.51;96899.38;6022141;23;20274;-90
2022/01/22 11:47:26;;;;;;;7.07;4.20;;;;;;;0.08;58.75;96899.44;6071690;23;20199;-88
2022/01/22 11:50:09;;;;;;;7.30;4.93;;;;;;;0.08;60.08;96899.44;6065882;23;20255;-90
2022/01/22 11:52:45;;;;;;;5.63;3.67;;;;;;;0.06;59.04;96893.50;6069186;23;20211;-87
2022/01/22 11:55:15;;;;;;;33.77;11.00;;;;;;;-0.21;58.12;96864.00;6068940;23;20266;-87
2022/01/22 11:57:45;;;;;;;8.13;4.00;;;;;;;-0.19;58.65;96862.28;6066668;23;20763;-90
2022/01/22 12:00:24;;;;;;;7.57;4.70;;;;;;;-0.05;59.60;96874.06;6091050;23;20727;-90
2022/01/22 12:03:04;;;;;;;6.47;3.73;;;;;;;0.02;59.95;96907.09;6043941;23;20205;-90
2022/01/22 12:06:13;;;;;;;7.03;3.03;;;;;;;-0.06;62.45;96902.06;6088697;23;20169;-86
2022/01/22 12:09:26;;;;;;;7.23;3.50;;;;;;;-0.22;66.58;96905.56;6046944;23;20671;-88
2022/01/22 12:14:47;;;;;;;5.90;3.43;;;;;;;-0.29;69.20;96899.66;5983199;24;20183;-85
2022/01/22 12:17:38;;;;;;;4.17;3.53;;;;;;;-0.22;70.53;96903.00;6074207;23;20172;-86
2022/01/22 12:20:40;;;;;;;4.00;3.40;;;;;;;-0.75;70.83;96811.78;6070996;23;20176;-88
2022/01/22 12:23:18;;;;;;;4.93;3.00;;;;;;;-0.19;69.23;96880.97;6068752;23;20180;-88
2022/01/22 12:25:47;;;;;;;6.97;4.60;;;;;;;-0.14;68.94;96907.19;6092723;23;20625;-88
2022/01/22 12:28:33;;;;;;;12.27;8.03;;;;;;;-0.79;68.85;96802.50;6089820;23;20176;-89
2022/01/22 12:31:06;;;;;;;9.50;5.80;;;;;;;-0.21;69.64;96902.16;6091483;23;20175;-88
2022/01/22 12:33:41;;;;;;;11.37;6.10;;;;;;;-0.26;69.74;96903.88;6089466;23;20211;-87
2022/01/22 12:36:17;;;;;;;12.43;6.03;;;;;;;-0.40;69.97;96903.13;6091219;23;20185;-86
2022/01/22 12:39:06;;;;;;;8.47;4.07;;;;;;;-0.81;69.17;96905.88;6067220;23;20246;-87
2022/01/22 12:41:47;;;;;;;5.67;3.77;;;;;;;-1.19;72.35;96889.88;6065789;23;20335;-86
2022/01/22 12:44:32;;;;;;;7.87;5.13;;;;;;;-1.23;74.01;96905.97;6090451;23;20247;-85
2022/01/22 12:47:05;;;;;;;6.83;4.80;;;;;;;-1.09;73.41;96891.53;6067224;23;20189;-89
2022/01/22 12:49:36;;;;;;;9.83;5.07;;;;;;;-0.90;71.09;96888.09;6087354;23;20911;-90
2022/01/22 12:52:10;;;;;;;6.60;3.87;;;;;;;-0.77;69.61;96884.66;6090297;23;20204;-91
2022/01/22 12:54:47;;;;;;;8.13;4.90;;;;;;;-0.54;69.77;96882.00;6090364;23;20205;-90
2022/01/22 12:57:30;;;;;;;6.10;3.87;;;;;;;-0.67;70.05;96845.63;6135701;23;20250;-86
2022/01/22 13:00:12;;;;;;;7.70;3.90;;;;;;;-0.22;69.24;96896.22;6074984;23;20171;-87
2022/01/22 13:02:45;;;;;;;8.63;6.03;;;;;;;-0.23;69.12;96866.53;6098426;23;20171;-87
2022/01/22 13:05:22;;;;;;;9.97;5.77;;;;;;;-0.06;68.68;96871.50;6124421;23;20729;-87
2022/01/22 13:08:11;;;;;;;9.67;5.20;;;;;;;0.04;65.58;96862.97;6154827;23;20218;-90
2022/01/22 13:11:00;;;;;;;5.53;3.90;;;;;;;0.22;61.79;96901.00;6151538;23;20167;-89
2022/01/22 13:13:37;;;;;;;3.47;2.50;;;;;;;-0.03;61.25;96896.94;6102016;23;20207;-88
2022/01/22 13:16:16;;;;;;;9.83;4.53;;;;;;;-0.02;61.35;96893.53;6123469;23;20258;-87
2022/01/22 13:18:58;;;;;;;5.93;3.53;;;;;;;-0.05;61.78;96881.69;6121546;23;20177;-87
2022/01/22 13:21:33;;;;;;;4.50;2.80;;;;;;;-0.37;59.95;96839.53;6102043;23;20173;-88
2022/01/22 13:24:08;;;;;;;3.70;2.80;;;;;;;-0.19;61.16;96911.50;6099300;23;20175;-88
2022/01/22 13:27:05;;;;;;;5.83;3.20;;;;;;;-0.18;61.21;96869.91;6152361;23;20253;-88
2022/01/22 13:29:38;;;;;;;4.60;2.50;;;;;;;-0.36;59.36;96847.16;6126470;23;20178;-87
2022/01/22 13:32:26;;;;;;;3.90;2.80;;;;;;;-0.24;58.93;96880.13;6125026;23;20562;-88
2022/01/22 13:49:48;;;;;;;6.27;4.10;;;;;;;-0.61;62.36;96886.28;6099755;23;20178;-86
2022/01/22 13:52:29;;;;;;;4.73;3.50;;;;;;;-0.79;63.97;96860.94;6082816;23;20277;-87
2022/01/22 13:55:00;;;;;;;6.10;3.57;;;;;;;-0.47;63.27;96881.09;6123614;23;20202;-87
2022/01/22 13:57:37;;;;;;;5.03;3.60;;;;;;;-0.80;63.34;96854.16;6102572;23;20869;-89
2022/01/22 14:00:16;;;;;;;5.60;3.33;;;;;;;-0.53;63.04;96888.78;6102107;23;20261;-88
2022/01/22 14:03:19;;;;;;;3.90;2.50;;;;;;;-0.59;61.12;96884.56;6125187;23;20845;-87
2022/01/22 14:05:52;;;;;;;7.47;3.30;;;;;;;-0.71;61.71;96889.72;6125803;23;20204;-87
2022/01/22 14:08:30;;;;;;;8.90;3.57;;;;;;;-0.55;61.31;96881.16;6149736;23;20164;-86
2022/01/22 14:11:08;;;;;;;4.20;3.07;;;;;;;-0.58;60.49;96873.56;6075556;23;20177;-88
2022/01/22 14:13:39;;;;;;;4.53;2.93;;;;;;;-0.44;59.19;96873.47;6146008;23;20205;-88
2022/01/22 14:16:22;;;;;;;15.17;7.93;;;;;;;-0.53;59.33;96854.03;6149811;23;20163;-86
2022/01/22 14:18:49;;;;;;;6.27;3.90;;;;;;;-0.56;58.18;96850.66;6101031;23;20177;-86
2022/01/22 14:21:21;;;;;;;4.93;3.67;;;;;;;-0.67;58.43;96827.84;6151385;23;20241;-87
2022/01/22 14:23:53;;;;;;;7.60;4.40;;;;;;;-0.47;58.00;96864.16;6125431;23;20170;-86
2022/01/22 14:26:32;;;;;;;8.57;4.77;;;;;;;-0.30;58.70;96886.94;6123812;23;20632;-86
2022/01/22 14:29:04;;;;;;;9.83;5.60;;;;;;;-0.24;59.46;96887.75;6123147;23;20659;-88
2022/01/22 14:31:49;;;;;;;9.73;3.63;;;;;;;-0.08;59.65;96891.03;6101372;23;20232;-87
2022/01/22 14:34:39;;;;;;;6.70;3.60;;;;;;;-0.26;59.61;96898.78;6150113;23;20281;-84
2022/01/22 14:37:07;;;;;;;5.47;3.57;;;;;;;-0.22;59.47;96901.31;6125280;23;20655;-90
2022/01/22 14:45:24;;;;;;;8.23;4.53;;;;;;;-0.31;60.72;96908.16;6150901;23;20171;-82
2022/01/22 14:47:57;;;;;;;9.33;5.93;;;;;;;-0.36;62.68;96903.09;6102553;23;20171;-80